createdAt,value
2019-03-20T00:01:51.199Z,99.90
2019-03-20T00:04:21.889Z,99.90
2019-03-20T00:06:52.531Z,99.90
2019-03-20T00:09:23.461Z,99.90
2019-03-20T00:11:54.280Z,99.90
2019-03-20T00:14:24.901Z,99.90
2019-03-20T00:16:55.425Z,99.90
2019-03-20T00:19:26.054Z,99.90
2019-03-20T00:21:57.866Z,99.90
2019-03-20T00:24:28.490Z,99.90
2019-03-20T00:26:59.312Z,99.90
2019-03-20T00:29:30.057Z,99.90
2019-03-20T00:32:00.680Z,99.90
2019-03-20T00:34:31.266Z,99.90
2019-03-20T00:37:02.146Z,99.90
2019-03-20T00:39:34.064Z,99.90
2019-03-20T00:42:04.715Z,99.90
2019-03-20T00:44:35.430Z,99.90
2019-03-20T00:47:06.018Z,99.90
2019-03-20T00:49:36.764Z,99.90
2019-03-20T00:52:07.460Z,99.90
2019-03-20T00:54:38.074Z,99.90
2019-03-20T00:57:08.527Z,99.90
2019-03-20T00:59:39.027Z,99.90
2019-03-20T01:02:09.663Z,99.90
2019-03-20T01:04:40.219Z,99.90
2019-03-20T01:07:11.048Z,99.90
2019-03-20T01:09:41.775Z,99.90
2019-03-20T01:12:12.149Z,99.90
2019-03-20T01:14:42.736Z,99.90
2019-03-20T01:17:13.342Z,99.90
2019-03-20T01:19:43.825Z,99.90
2019-03-20T01:22:14.251Z,99.90
2019-03-20T01:24:44.651Z,99.90
2019-03-20T01:27:15.220Z,99.90
2019-03-20T01:29:45.838Z,99.90
2019-03-20T01:32:16.240Z,99.90
2019-03-20T01:34:46.641Z,99.90
2019-03-20T01:37:17.322Z,99.90
2019-03-20T01:39:48.524Z,99.90
2019-03-20T01:42:19.151Z,99.90
2019-03-20T01:44:49.594Z,99.90
2019-03-20T01:47:20.001Z,99.90
2019-03-20T01:49:50.434Z,99.90
2019-03-20T01:52:20.838Z,99.90
2019-03-20T01:54:51.365Z,99.90
2019-03-20T01:57:22.287Z,99.90
2019-03-20T01:59:52.778Z,99.90
2019-03-20T02:02:23.250Z,99.90
2019-03-20T02:04:53.717Z,99.90
2019-03-20T02:07:43.186Z,99.90
2019-03-20T02:10:13.990Z,99.90
2019-03-20T02:12:44.428Z,99.90
2019-03-20T02:15:15.598Z,99.90
2019-03-20T02:17:46.240Z,99.90
2019-03-20T02:20:17.299Z,99.90
2019-03-20T02:22:48.066Z,99.90
2019-03-20T02:25:19.111Z,99.90
2019-03-20T02:27:49.643Z,99.90
2019-03-20T02:30:27.722Z,99.90
2019-03-20T02:32:58.478Z,99.90
2019-03-20T02:35:28.880Z,99.90
2019-03-20T02:37:59.497Z,99.90
2019-03-20T02:40:29.869Z,99.90
2019-03-20T02:43:00.574Z,99.90
2019-03-20T02:45:32.029Z,99.90
2019-03-20T02:48:02.481Z,99.90
2019-03-20T02:50:33.139Z,99.90
2019-03-20T02:53:04.106Z,99.90
2019-03-20T02:55:34.558Z,99.90
2019-03-20T02:58:05.055Z,99.90
2019-03-20T03:00:35.534Z,99.90
2019-03-20T03:03:06.092Z,99.90
2019-03-20T03:05:36.511Z,99.90
2019-03-20T03:08:07.234Z,99.90
2019-03-20T03:10:37.746Z,99.90
2019-03-20T03:13:08.428Z,99.90
2019-03-20T03:15:38.884Z,99.90
2019-03-20T03:18:09.328Z,99.90
2019-03-20T03:20:40.828Z,99.90
2019-03-20T03:23:11.312Z,99.90
2019-03-20T03:25:41.767Z,99.90
2019-03-20T03:28:12.364Z,99.90
2019-03-20T03:30:42.969Z,99.90
2019-03-20T03:33:13.499Z,99.90
2019-03-20T03:35:43.936Z,99.90
2019-03-20T03:38:14.379Z,99.90
2019-03-20T03:40:45.014Z,99.90
2019-03-20T03:43:15.576Z,99.90
2019-03-20T03:45:46.088Z,99.90
2019-03-20T03:48:16.751Z,99.90
2019-03-20T03:50:48.345Z,99.90
2019-03-20T03:53:19.215Z,99.90
2019-03-20T03:55:49.602Z,99.90
2019-03-20T03:58:20.218Z,99.90
2019-03-20T04:00:50.734Z,99.90
2019-03-20T04:03:21.363Z,99.90
2019-03-20T04:05:52.045Z,99.90
2019-03-20T04:08:22.454Z,99.90
2019-03-20T04:10:52.981Z,99.90
2019-03-20T04:13:23.534Z,99.90
2019-03-20T04:15:54.101Z,99.90
2019-03-20T04:18:24.892Z,99.90
2019-03-20T04:20:55.367Z,99.90
2019-03-20T04:23:25.803Z,99.90
2019-03-20T04:25:56.318Z,99.90
2019-03-20T04:28:26.989Z,99.90
2019-03-20T04:30:57.716Z,99.90
2019-03-20T04:33:28.382Z,99.90
2019-03-20T04:35:58.852Z,99.90
2019-03-20T04:38:29.485Z,99.90
2019-03-20T04:41:06.257Z,99.90
2019-03-20T04:43:36.636Z,99.90
2019-03-20T04:46:07.109Z,99.90
2019-03-20T04:48:38.013Z,99.90
2019-03-20T04:51:08.630Z,99.90
2019-03-20T04:53:39.300Z,99.90
2019-03-20T04:56:09.821Z,99.90
2019-03-20T04:58:46.843Z,99.90
2019-03-20T05:01:17.572Z,99.90
2019-03-20T05:03:48.005Z,99.90
2019-03-20T05:06:18.527Z,99.90
2019-03-20T05:08:48.961Z,99.90
2019-03-20T05:11:19.484Z,99.90
2019-03-20T05:13:49.988Z,99.90
2019-03-20T05:16:20.414Z,99.90
2019-03-20T05:18:50.861Z,99.90
2019-03-20T05:21:21.411Z,99.90
2019-03-20T05:23:51.852Z,99.90
2019-03-20T05:26:22.427Z,99.90
2019-03-20T05:28:53.064Z,99.90
2019-03-20T05:31:23.900Z,99.90
2019-03-20T05:33:54.472Z,99.90
2019-03-20T05:36:25.048Z,99.90
2019-03-20T05:38:55.784Z,99.90
2019-03-20T05:41:26.261Z,99.90
2019-03-20T05:43:56.972Z,99.90
2019-03-20T05:46:27.408Z,99.90
2019-03-20T05:48:58.223Z,99.90
2019-03-20T05:51:28.859Z,99.90
2019-03-20T05:53:59.725Z,99.90
2019-03-20T05:56:30.409Z,99.90
2019-03-20T05:59:00.858Z,99.90
2019-03-20T06:01:31.295Z,99.90
2019-03-20T06:04:01.836Z,99.90
2019-03-20T06:06:32.581Z,99.90
2019-03-20T06:09:05.886Z,99.90
2019-03-20T06:11:36.562Z,99.90
2019-03-20T06:14:07.021Z,99.90
2019-03-20T06:16:37.714Z,99.90
2019-03-20T06:19:08.627Z,99.90
2019-03-20T06:21:39.179Z,99.90
2019-03-20T06:24:09.847Z,99.90
2019-03-20T06:26:40.561Z,99.90
2019-03-20T06:29:11.101Z,99.90
2019-03-20T06:31:41.946Z,99.90
2019-03-20T06:34:12.594Z,99.90
2019-03-20T06:36:43.802Z,99.90
2019-03-20T06:39:14.416Z,99.90
2019-03-20T06:41:44.892Z,99.90
2019-03-20T06:44:15.306Z,99.90
2019-03-20T06:46:45.878Z,99.90
2019-03-20T06:49:16.368Z,99.90
2019-03-20T06:51:47.986Z,99.90
2019-03-20T06:54:18.588Z,99.90
2019-03-20T06:56:49.018Z,99.90
2019-03-20T07:00:09.934Z,99.90
2019-03-20T07:02:43.388Z,99.90
2019-03-20T07:05:42.932Z,99.90
2019-03-20T07:08:13.370Z,99.90
2019-03-20T07:11:16.323Z,99.90
2019-03-20T07:13:46.852Z,99.90
2019-03-20T07:16:17.691Z,99.90
2019-03-20T07:18:48.322Z,99.90
2019-03-20T07:21:19.008Z,99.90
2019-03-20T07:23:49.837Z,99.90
2019-03-20T07:26:20.431Z,99.90
2019-03-20T07:28:51.369Z,99.90
2019-03-20T07:31:22.012Z,99.90
2019-03-20T07:33:52.639Z,99.90
2019-03-20T07:36:23.511Z,99.90
2019-03-20T07:38:53.987Z,99.90
2019-03-20T07:41:24.434Z,99.90
2019-03-20T07:43:55.187Z,99.90
2019-03-20T07:46:25.738Z,99.90
2019-03-20T07:48:56.411Z,99.90
2019-03-20T07:51:26.972Z,99.70
2019-03-20T07:53:57.535Z,99.80
2019-03-20T07:56:28.010Z,99.50
2019-03-20T07:58:58.466Z,98.80
2019-03-20T08:01:28.906Z,99.00
2019-03-20T08:03:59.392Z,99.30
2019-03-20T08:06:31.092Z,97.60
2019-03-20T08:09:01.645Z,97.60
2019-03-20T08:11:32.521Z,97.80
2019-03-20T08:14:03.315Z,96.80
2019-03-20T08:16:33.926Z,97.30
2019-03-20T08:19:04.638Z,96.50
2019-03-20T08:21:35.130Z,96.00
2019-03-20T08:24:05.693Z,95.50
2019-03-20T08:26:36.293Z,95.80
2019-03-20T08:29:07.179Z,96.30
2019-03-20T08:31:37.833Z,96.30
2019-03-20T08:34:08.282Z,94.20
2019-03-20T08:36:38.860Z,94.40
2019-03-20T08:39:10.599Z,94.10
2019-03-20T08:41:41.272Z,93.90
2019-03-20T08:44:11.891Z,94.20
2019-03-20T08:46:42.478Z,93.80
2019-03-20T08:49:13.089Z,93.60
2019-03-20T08:51:43.675Z,93.20
2019-03-20T08:54:14.309Z,92.10
2019-03-20T08:56:44.949Z,92.50
2019-03-20T08:59:18.124Z,92.20
2019-03-20T09:01:48.769Z,90.50
2019-03-20T09:04:19.440Z,90.30
2019-03-20T09:06:50.109Z,91.20
2019-03-20T09:09:20.715Z,90.40
2019-03-20T09:11:51.135Z,91.10
2019-03-20T09:14:21.827Z,90.40
2019-03-20T09:16:52.497Z,87.10
2019-03-20T09:19:23.215Z,86.00
2019-03-20T09:21:53.866Z,83.10
2019-03-20T09:24:24.803Z,82.40
2019-03-20T09:26:55.240Z,83.60
2019-03-20T09:29:35.707Z,82.80
2019-03-20T09:31:58.446Z,83.30
2019-03-20T09:34:30.177Z,87.20
2019-03-20T09:37:00.884Z,83.50
2019-03-20T09:39:31.733Z,84.80
2019-03-20T09:42:02.590Z,85.90
2019-03-20T09:44:33.199Z,85.60
2019-03-20T09:47:03.761Z,84.80
2019-03-20T09:49:34.326Z,87.60
2019-03-20T09:52:05.178Z,86.20
2019-03-20T09:54:36.576Z,86.70
2019-03-20T09:57:07.148Z,85.50
2019-03-20T09:59:37.626Z,86.60
2019-03-20T10:02:08.655Z,85.00
2019-03-20T10:04:39.326Z,85.50
2019-03-20T10:07:09.879Z,85.50
2019-03-20T10:09:40.457Z,87.10
2019-03-20T10:12:10.931Z,86.70
2019-03-20T10:14:41.484Z,86.60
2019-03-20T10:17:12.496Z,82.60
2019-03-20T10:19:42.989Z,82.60
2019-03-20T10:22:13.483Z,81.20
2019-03-20T10:24:44.387Z,77.90
2019-03-20T10:27:15.107Z,81.30
2019-03-20T10:29:45.681Z,78.00
2019-03-20T10:32:16.285Z,75.80
2019-03-20T10:34:46.924Z,79.60
2019-03-20T10:37:17.781Z,75.30
2019-03-20T10:39:48.340Z,77.00
2019-03-20T10:42:18.918Z,78.80
2019-03-20T10:44:49.679Z,76.70
2019-03-20T10:47:21.477Z,76.50
2019-03-20T10:49:52.042Z,76.50
2019-03-20T10:52:22.589Z,74.30
2019-03-20T10:54:53.619Z,74.90
2019-03-20T10:57:24.199Z,75.20
2019-03-20T10:59:54.989Z,76.60
2019-03-20T11:02:25.516Z,75.80
2019-03-20T11:04:56.087Z,73.60
2019-03-20T11:07:26.734Z,75.10
2019-03-20T11:09:57.528Z,75.50
2019-03-20T11:12:28.098Z,78.60
2019-03-20T11:14:58.939Z,78.60
2019-03-20T11:17:29.830Z,76.60
2019-03-20T11:20:00.526Z,78.40
2019-03-20T11:22:31.414Z,80.20
2019-03-20T11:25:01.939Z,81.40
2019-03-20T11:27:33.478Z,81.40
2019-03-20T11:30:04.654Z,83.00
2019-03-20T11:32:35.410Z,82.90
2019-03-20T11:35:06.179Z,84.00
2019-03-20T11:37:36.730Z,83.60
2019-03-20T11:40:10.310Z,81.20
2019-03-20T11:42:40.862Z,81.30
2019-03-20T11:45:12.031Z,81.10
2019-03-20T11:47:42.940Z,78.60
2019-03-20T11:50:22.338Z,79.50
2019-03-20T11:52:53.477Z,79.70
2019-03-20T11:55:24.458Z,75.20
2019-03-20T11:57:55.401Z,75.20
2019-03-20T12:00:26.289Z,74.60
2019-03-20T12:02:57.267Z,74.30
2019-03-20T12:05:27.741Z,70.10
2019-03-20T12:08:00.069Z,68.60
2019-03-20T12:10:30.807Z,69.00
2019-03-20T12:13:01.699Z,68.00
2019-03-20T12:15:33.855Z,65.00
2019-03-20T12:18:05.824Z,65.30
2019-03-20T12:20:36.559Z,63.50
2019-03-20T12:23:07.233Z,63.40
2019-03-20T12:25:38.077Z,62.20
2019-03-20T12:28:09.777Z,61.10
2019-03-20T12:30:40.908Z,62.00
2019-03-20T12:33:12.015Z,62.90
2019-03-20T12:35:42.518Z,60.80
2019-03-20T12:38:15.414Z,60.80
2019-03-20T12:40:45.873Z,59.90
2019-03-20T12:43:16.672Z,60.60
2019-03-20T12:45:47.325Z,57.20
2019-03-20T12:48:18.348Z,51.70
2019-03-20T12:50:49.129Z,47.70
2019-03-20T12:53:19.914Z,47.20
2019-03-20T12:55:50.614Z,47.50
2019-03-20T12:58:21.186Z,44.40
2019-03-20T13:00:54.381Z,39.80
2019-03-20T13:03:24.586Z,39.30
2019-03-20T13:05:56.270Z,41.00
2019-03-20T13:08:26.926Z,42.10
2019-03-20T13:10:57.756Z,43.00
2019-03-20T13:13:28.250Z,41.50
2019-03-20T13:15:59.131Z,45.50
2019-03-20T13:18:29.874Z,46.80
2019-03-20T13:21:00.918Z,47.30
2019-03-20T13:23:32.611Z,45.50
2019-03-20T13:26:03.141Z,42.50
2019-03-20T13:28:33.831Z,38.60
2019-03-20T13:31:09.311Z,37.70
2019-03-20T13:33:40.256Z,35.10
2019-03-20T13:36:11.583Z,36.40
2019-03-20T13:38:42.508Z,39.30
2019-03-20T13:41:13.335Z,40.20
2019-03-20T13:43:45.377Z,37.90
2019-03-20T13:46:16.127Z,35.90
2019-03-20T13:48:46.633Z,38.80
2019-03-20T13:51:17.488Z,41.90
2019-03-20T13:53:48.210Z,43.00
2019-03-20T13:56:20.365Z,45.10
2019-03-20T13:58:52.317Z,47.70
2019-03-20T14:01:23.595Z,46.60
2019-03-20T14:03:54.187Z,43.90
2019-03-20T14:06:25.335Z,41.80
2019-03-20T14:08:56.200Z,40.00
2019-03-20T14:11:26.700Z,40.10
2019-03-20T14:13:57.262Z,42.40
2019-03-20T14:16:28.320Z,43.70
2019-03-20T14:18:59.392Z,46.50
2019-03-20T14:21:30.296Z,49.10
2019-03-20T14:24:01.210Z,50.30
2019-03-20T14:26:31.750Z,50.00
2019-03-20T14:29:02.720Z,52.20
2019-03-20T14:31:33.336Z,53.30
2019-03-20T14:34:04.183Z,54.70
2019-03-20T14:36:35.388Z,56.30
2019-03-20T14:39:08.806Z,57.70
2019-03-20T14:41:39.677Z,59.10
2019-03-20T14:44:10.245Z,60.30
2019-03-20T14:46:41.056Z,62.20
2019-03-20T14:49:12.800Z,63.70
2019-03-20T14:51:43.459Z,64.40
2019-03-20T14:54:14.028Z,63.80
2019-03-20T14:56:44.963Z,64.50
2019-03-20T14:59:15.794Z,64.70
2019-03-20T15:01:46.376Z,65.70
2019-03-20T15:04:16.955Z,66.00
2019-03-20T15:06:47.504Z,64.80
2019-03-20T15:09:18.310Z,64.10
2019-03-20T15:11:57.203Z,62.90
2019-03-20T15:14:29.254Z,63.20
2019-03-20T15:16:59.927Z,64.00
2019-03-20T15:19:30.865Z,65.50
2019-03-20T15:22:01.543Z,66.80
2019-03-20T15:24:32.411Z,66.10
2019-03-20T15:27:03.115Z,66.60
2019-03-20T15:29:34.085Z,66.50
2019-03-20T15:32:04.772Z,67.70
2019-03-20T15:34:35.255Z,68.00
2019-03-20T15:37:06.694Z,67.80
2019-03-20T15:39:37.233Z,66.90
2019-03-20T15:42:07.908Z,68.20
2019-03-20T15:44:39.098Z,68.10
2019-03-20T15:47:10.122Z,69.60
2019-03-20T15:49:40.850Z,69.40
2019-03-20T15:52:14.734Z,69.40
2019-03-20T15:54:46.306Z,69.00
2019-03-20T15:57:17.207Z,69.40
2019-03-20T15:59:48.622Z,69.50
2019-03-20T16:02:19.408Z,69.20
2019-03-20T16:04:50.110Z,70.20
2019-03-20T16:07:20.832Z,71.00
2019-03-20T16:09:51.670Z,71.60
2019-03-20T16:12:22.559Z,71.70
2019-03-20T16:14:54.429Z,72.30
2019-03-20T16:17:25.482Z,73.10
2019-03-20T16:19:56.904Z,73.50
2019-03-20T16:22:27.835Z,74.70
2019-03-20T16:24:59.082Z,76.00
2019-03-20T16:27:32.060Z,76.40
2019-03-20T16:30:03.621Z,77.20
2019-03-20T16:32:34.285Z,78.30
2019-03-20T16:35:05.499Z,78.90
2019-03-20T16:37:36.499Z,79.50
2019-03-20T16:40:09.025Z,79.80
2019-03-20T16:42:39.673Z,80.50
2019-03-20T16:45:12.897Z,80.70
2019-03-20T16:47:44.103Z,81.10
2019-03-20T16:50:15.451Z,81.60
2019-03-20T16:52:46.407Z,81.60
2019-03-20T16:55:17.060Z,81.70
2019-03-20T16:57:47.843Z,81.90
2019-03-20T17:00:26.602Z,82.20
2019-03-20T17:02:57.456Z,82.30
2019-03-20T17:05:28.486Z,81.80
2019-03-20T17:07:59.536Z,82.40
2019-03-20T17:10:32.651Z,82.80
2019-03-20T17:13:03.611Z,82.80
2019-03-20T17:15:35.085Z,82.60
2019-03-20T17:18:06.766Z,83.00
2019-03-20T17:20:38.468Z,81.20
2019-03-20T17:23:09.615Z,81.10
2019-03-20T17:25:42.084Z,81.50
2019-03-20T17:28:13.496Z,82.70
2019-03-20T17:30:44.900Z,82.50
2019-03-20T17:33:16.513Z,82.50
2019-03-20T17:35:47.930Z,82.90
2019-03-20T17:38:19.570Z,83.60
2019-03-20T17:40:51.244Z,84.40
2019-03-20T17:43:23.038Z,84.60
2019-03-20T17:45:56.060Z,84.70
2019-03-20T17:48:27.005Z,85.00
2019-03-20T17:50:58.134Z,85.70
2019-03-20T17:53:29.605Z,85.40
2019-03-20T17:56:05.400Z,86.00
2019-03-20T17:58:38.479Z,86.20
2019-03-20T18:01:11.329Z,86.60
2019-03-20T18:03:42.537Z,86.80
2019-03-20T18:06:13.339Z,86.90
2019-03-20T18:08:44.159Z,87.00
2019-03-20T18:11:15.124Z,87.60
2019-03-20T18:13:45.738Z,88.40
2019-03-20T18:16:16.979Z,88.80
2019-03-20T18:18:48.071Z,88.70
2019-03-20T18:21:19.751Z,89.50
2019-03-20T18:23:51.403Z,89.80
2019-03-20T18:26:22.451Z,89.30
2019-03-20T18:28:53.487Z,89.20
2019-03-20T18:31:24.945Z,89.40
2019-03-20T18:33:56.037Z,88.80
2019-03-20T18:36:27.713Z,88.80
2019-03-20T18:38:58.947Z,89.60
2019-03-20T18:41:29.674Z,89.70
2019-03-20T18:44:00.785Z,90.00
2019-03-20T18:46:31.781Z,90.00
2019-03-20T18:49:02.681Z,90.00
2019-03-20T18:51:33.599Z,90.10
2019-03-20T18:54:05.372Z,90.00
2019-03-20T18:56:36.979Z,90.50
2019-03-20T18:59:08.542Z,90.30
2019-03-20T19:01:39.215Z,90.40
2019-03-20T19:04:10.071Z,90.30
2019-03-20T19:06:41.105Z,90.30
2019-03-20T19:09:12.563Z,90.10
2019-03-20T19:11:44.797Z,90.00
2019-03-20T19:14:17.123Z,90.10
2019-03-20T19:16:48.550Z,90.40
2019-03-20T19:19:21.071Z,90.10
2019-03-20T19:21:51.946Z,90.00
2019-03-20T19:24:22.920Z,89.50
2019-03-20T19:26:53.811Z,89.70
2019-03-20T19:29:25.000Z,90.00
2019-03-20T19:31:57.333Z,90.20
2019-03-20T19:34:28.735Z,90.30
2019-03-20T19:37:00.147Z,90.40
2019-03-20T19:39:32.202Z,90.30
2019-03-20T19:42:03.521Z,90.10
2019-03-20T19:44:35.305Z,90.00
2019-03-20T19:47:06.485Z,90.10
2019-03-20T19:49:38.569Z,90.10
2019-03-20T19:52:10.012Z,90.50
2019-03-20T19:54:42.281Z,90.60
2019-03-20T19:57:13.472Z,90.80
2019-03-20T19:59:45.752Z,90.70
2019-03-20T20:02:16.876Z,90.80
2019-03-20T20:04:47.831Z,91.00
2019-03-20T20:07:18.900Z,90.70
2019-03-20T20:09:49.993Z,90.50
2019-03-20T20:12:30.818Z,90.50
2019-03-20T20:14:53.372Z,90.40
2019-03-20T20:17:24.330Z,90.40
2019-03-20T20:19:55.102Z,90.10
2019-03-20T20:22:26.302Z,90.10
2019-03-20T20:24:58.763Z,90.10
2019-03-20T20:27:55.114Z,89.20
2019-03-20T20:30:25.998Z,90.10
2019-03-20T20:32:57.053Z,90.00
2019-03-20T20:35:27.758Z,90.10
2019-03-20T20:37:58.878Z,90.00
2019-03-20T20:40:30.952Z,90.10
2019-03-20T20:43:01.720Z,90.10
2019-03-20T20:45:34.108Z,90.40
2019-03-20T20:48:05.623Z,90.50
2019-03-20T20:50:36.769Z,90.50
2019-03-20T20:53:07.911Z,90.70
2019-03-20T20:55:39.039Z,90.70
2019-03-20T20:58:10.999Z,90.70
2019-03-20T21:00:42.095Z,90.80
2019-03-20T21:03:13.969Z,90.80
2019-03-20T21:05:45.464Z,91.00
2019-03-20T21:08:16.878Z,90.90
2019-03-20T21:10:49.093Z,91.10
2019-03-20T21:13:20.535Z,91.50
2019-03-20T21:15:54.829Z,91.50
2019-03-20T21:19:05.639Z,91.80
2019-03-20T21:22:21.051Z,91.80
2019-03-20T21:24:53.304Z,91.90
2019-03-20T21:28:02.788Z,91.90
2019-03-20T21:31:08.151Z,91.90
2019-03-20T21:34:33.859Z,92.00
2019-03-20T21:37:39.657Z,92.20
2019-03-20T21:40:12.681Z,92.30
2019-03-20T21:43:39.749Z,92.40
2019-03-20T21:46:47.343Z,93.00
2019-03-20T21:49:19.218Z,92.80
2019-03-20T21:51:50.748Z,93.00
2019-03-20T21:54:58.336Z,92.70
2019-03-20T21:57:53.648Z,93.10
2019-03-20T22:01:04.246Z,93.30
2019-03-20T22:03:35.885Z,93.50
2019-03-20T22:06:43.366Z,93.60
2019-03-20T22:09:42.074Z,94.00
2019-03-20T22:12:34.484Z,94.20
2019-03-20T22:15:14.254Z,94.40
2019-03-20T22:18:14.517Z,94.30
2019-03-20T22:21:19.210Z,94.20
2019-03-20T22:24:19.957Z,94.20
2019-03-20T22:27:29.394Z,94.00
2019-03-20T22:30:01.055Z,93.90
2019-03-20T22:32:59.887Z,93.80
2019-03-20T22:36:21.395Z,93.80
2019-03-20T22:39:38.184Z,93.50
2019-03-20T22:42:25.955Z,93.50
2019-03-20T22:45:36.759Z,93.30
2019-03-20T22:48:42.924Z,93.10
2019-03-20T22:51:39.083Z,93.00
2019-03-20T22:54:45.395Z,93.10
2019-03-20T22:57:52.777Z,93.40
2019-03-20T23:00:25.601Z,93.50
2019-03-20T23:03:07.995Z,93.40
2019-03-20T23:05:39.697Z,93.40
2019-03-20T23:08:17.216Z,93.30
2019-03-20T23:10:50.345Z,93.20
2019-03-20T23:13:22.292Z,93.30
2019-03-20T23:15:53.784Z,93.30
2019-03-20T23:18:25.382Z,93.40
2019-03-20T23:20:56.682Z,93.30
2019-03-20T23:23:28.160Z,93.30
2019-03-20T23:25:59.960Z,93.40
2019-03-20T23:28:31.902Z,93.50
2019-03-20T23:31:03.622Z,93.50
2019-03-20T23:33:35.266Z,93.50
2019-03-20T23:36:07.193Z,93.40
2019-03-20T23:38:39.008Z,93.50
2019-03-20T23:41:10.846Z,93.60
2019-03-20T23:43:52.330Z,93.40
2019-03-20T23:46:15.920Z,93.20
2019-03-20T23:49:18.058Z,93.20
2019-03-20T23:51:49.804Z,93.50
2019-03-20T23:54:24.530Z,93.40
2019-03-20T23:56:56.289Z,93.40
2019-03-20T23:59:27.664Z,93.60
